(°C)
-2°
(°C)
-7°
-5°
-2°
NV
VNV
NV
NE
ENE
ESE
SSE
(km/h)
8-15
8-17
9-21
9-28
10-34
12-39
14-44
(mm)
0
0
0
0
0
0
0
(%)
32
11
8
4
0
5
9

Sun elevation

/ 21.5°
sun-icon
UV 11
06:27
19:44
Primul pătrar (26°)
07:54
22:27

METAR for Walden (K33V)

Ora Conditions Temperatură/
Punctul de rouă
Vânt Vizibilitate Vremea Nori Presiune Change Raw
LIFR -5.5°C / -7.1°C 300º 3kt >10km - Overcast 100ft - K33V 141355Z AUTO 30003KT 7SM OVC001 M05/M07 A3001 RMK AO2 T10551071
LIFR -5.5°C / -7°C variable 0kt 1600m - Overcast 100ft - K33V 141335Z AUTO 00000KT 1SM OVC001 M05/M07 A3001 RMK AO2 T10551070
LIFR -6.9°C / -8.2°C variable 0kt 8000m - Broken Clouds 100ft - K33V 141315Z AUTO 00000KT 5SM BKN001 BKN009 M07/M08 A3001 RMK AO2 T10691082
VFR -6.7°C / -8.2°C 190º 3kt >10km - Scattered Clouds 900ft - K33V 141255Z AUTO 19003KT 10SM SCT009 M07/M08 A3000 RMK AO2 T10671082
VFR -6°C / -7.6°C 120º 4kt >10km - Scattered Clouds 400ft - K33V 141235Z AUTO 12004KT 10SM SCT004 SCT090 M06/M08 A3000 RMK AO2 T10601076
VFR -5°C / -6.5°C 110º 4kt >10km - Scattered Clouds 400ft - K33V 141215Z AUTO 11004KT 10SM SCT004 SCT022 BKN034 M05/M06 A2999 RMK AO2 T10501065
MVFR -4.3°C / -6°C 130º 4kt 6400m - Scattered Clouds 2000ft - K33V 141155Z AUTO 13004KT 4SM SCT020 BKN037 OVC060 M04/M06 A2999 RMK AO2 T10431060 11013 21043
MVFR -4.1°C / -5.8°C 100º 4kt 8000m - Scattered Clouds 400ft - K33V 141135Z AUTO 10004KT 5SM SCT004 BKN036 OVC060 M04/M06 A3000 RMK AO2 T10411058
MVFR -4.1°C / -5.8°C 100º 3kt >10km - Scattered Clouds 400ft - K33V 141115Z AUTO 10003KT 7SM SCT004 SCT011 OVC020 M04/M06 A3000 RMK AO2 T10411058
MVFR -4.1°C / -5.8°C variable 0kt >10km - Overcast 2000ft - K33V 141055Z AUTO 00000KT 10SM OVC020 M04/M06 A3000 RMK AO2 T10411058
MVFR -3.3°C / -5°C variable 0kt >10km - Broken Clouds 2200ft - K33V 141035Z AUTO 00000KT 7SM BKN022 BKN035 OVC070 M03/M05 A3000 RMK AO2 T10331050
MVFR -3°C / -4.8°C variable 0kt 6400m - Broken Clouds 2400ft - K33V 141015Z AUTO 00000KT 4SM BKN024 BKN039 OVC070 M03/M05 A2999 RMK AO2 T10301048
MVFR -2.7°C / -4.5°C 60º 3kt 6400m - Scattered Clouds 900ft - K33V 140955Z AUTO 06003KT 4SM SCT009 BKN026 OVC030 M03/M04 A3000 RMK AO2 T10271045
MVFR -3.2°C / -5°C 90º 3kt 6400m - Scattered Clouds 500ft - K33V 140935Z AUTO 09003KT 4SM SCT005 BKN013 OVC033 M03/M05 A3000 RMK AO2 T10321050
MVFR -3.2°C / -5°C 80º 6kt 8000m - Scattered Clouds 500ft - K33V 140915Z AUTO 08006KT 5SM SCT005 BKN033 OVC045 M03/M05 A3000 RMK AO2 T10321050
IFR -3.9°C / -5.5°C 70º 8kt 2000m - Overcast 500ft - K33V 140855Z AUTO 07008KT 1 1/4SM OVC005 M04/M05 A3000 RMK AO2 T10391055
LIFR -3.5°C / -5.2°C 70º 7kt 1600m - Overcast 300ft - K33V 140835Z AUTO 07007KT 1SM OVC003 M03/M05 A3000 RMK AO2 T10351052
LIFR -2.7°C / -4.3°C 60º 5kt 1200m - Overcast 300ft - K33V 140815Z AUTO 06005KT 3/4SM OVC003 M03/M04 A3001 RMK AO2 T10271043
LIFR -2.7°C / -4.5°C 70º 7kt 800m - Overcast 300ft - K33V 140755Z AUTO 07007KT 1/2SM OVC003 M03/M04 A3000 RMK AO2 T10271045
IFR -2.4°C / -4.4°C 70º 9kt 2800m - Broken Clouds 700ft - K33V 140735Z AUTO 07009KT 1 3/4SM BKN007 OVC012 M02/M04 A3000 RMK AO2 T10241044
IFR -1.3°C / -3°C 70º 7kt 3200m - Broken Clouds 1000ft - K33V 140715Z AUTO 07007KT 2SM BKN010 OVC015 M01/M03 A3000 RMK AO2 T10131030
IFR -1.3°C / -3.1°C 70º 8kt 2800m - Scattered Clouds 800ft - K33V 140655Z AUTO 07008KT 1 3/4SM SCT008 BKN014 OVC021 M01/M03 A3000 RMK AO2 T10131031
IFR -1.3°C / -2.7°C 70º 5kt 3200m - Scattered Clouds 900ft - K33V 140635Z AUTO 07005KT 2SM SCT009 BKN014 OVC021 M01/M03 A3000 RMK AO2 T10131027
IFR -1.3°C / -3°C 290º 5kt 3200m - Scattered Clouds 600ft - K33V 140615Z AUTO 29005KT 2SM SCT006 BKN010 OVC016 M01/M03 A3001 RMK AO2 T10131030

LIFR

-5.5°C / -7.1°C

[Mai mult]
Vânt 300º 3kt
Vizibilitate >10km
Vremea -
Nori Overcast 100ft
Presiune
Change -
Raw K33V 141355Z AUTO 30003KT 7SM OVC001 M05/M07 A3001 RMK AO2 T10551071

LIFR

-5.5°C / -7°C

[Mai mult]
Vânt variable 0kt
Vizibilitate 1600m
Vremea -
Nori Overcast 100ft
Presiune
Change -
Raw K33V 141335Z AUTO 00000KT 1SM OVC001 M05/M07 A3001 RMK AO2 T10551070

LIFR

-6.9°C / -8.2°C

[Mai mult]
Vânt variable 0kt
Vizibilitate 8000m
Vremea -
Nori Broken Clouds 100ft
Presiune
Change -
Raw K33V 141315Z AUTO 00000KT 5SM BKN001 BKN009 M07/M08 A3001 RMK AO2 T10691082

VFR

-6.7°C / -8.2°C

[Mai mult]
Vânt 190º 3kt
Vizibilitate >10km
Vremea -
Nori Scattered Clouds 900ft
Presiune
Change -
Raw K33V 141255Z AUTO 19003KT 10SM SCT009 M07/M08 A3000 RMK AO2 T10671082

VFR

-6°C / -7.6°C

[Mai mult]
Vânt 120º 4kt
Vizibilitate >10km
Vremea -
Nori Scattered Clouds 400ft
Presiune
Change -
Raw K33V 141235Z AUTO 12004KT 10SM SCT004 SCT090 M06/M08 A3000 RMK AO2 T10601076

VFR

-5°C / -6.5°C

[Mai mult]
Vânt 110º 4kt
Vizibilitate >10km
Vremea -
Nori Scattered Clouds 400ft
Presiune
Change -
Raw K33V 141215Z AUTO 11004KT 10SM SCT004 SCT022 BKN034 M05/M06 A2999 RMK AO2 T10501065

MVFR

-4.3°C / -6°C

[Mai mult]
Vânt 130º 4kt
Vizibilitate 6400m
Vremea -
Nori Scattered Clouds 2000ft
Presiune
Change -
Raw K33V 141155Z AUTO 13004KT 4SM SCT020 BKN037 OVC060 M04/M06 A2999 RMK AO2 T10431060 11013 21043

MVFR

-4.1°C / -5.8°C

[Mai mult]
Vânt 100º 4kt
Vizibilitate 8000m
Vremea -
Nori Scattered Clouds 400ft
Presiune
Change -
Raw K33V 141135Z AUTO 10004KT 5SM SCT004 BKN036 OVC060 M04/M06 A3000 RMK AO2 T10411058

MVFR

-4.1°C / -5.8°C

[Mai mult]
Vânt 100º 3kt
Vizibilitate >10km
Vremea -
Nori Scattered Clouds 400ft
Presiune
Change -
Raw K33V 141115Z AUTO 10003KT 7SM SCT004 SCT011 OVC020 M04/M06 A3000 RMK AO2 T10411058

MVFR

-4.1°C / -5.8°C

[Mai mult]
Vânt variable 0kt
Vizibilitate >10km
Vremea -
Nori Overcast 2000ft
Presiune
Change -
Raw K33V 141055Z AUTO 00000KT 10SM OVC020 M04/M06 A3000 RMK AO2 T10411058

MVFR

-3.3°C / -5°C

[Mai mult]
Vânt variable 0kt
Vizibilitate >10km
Vremea -
Nori Broken Clouds 2200ft
Presiune
Change -
Raw K33V 141035Z AUTO 00000KT 7SM BKN022 BKN035 OVC070 M03/M05 A3000 RMK AO2 T10331050

MVFR

-3°C / -4.8°C

[Mai mult]
Vânt variable 0kt
Vizibilitate 6400m
Vremea -
Nori Broken Clouds 2400ft
Presiune
Change -
Raw K33V 141015Z AUTO 00000KT 4SM BKN024 BKN039 OVC070 M03/M05 A2999 RMK AO2 T10301048

MVFR

-2.7°C / -4.5°C

[Mai mult]
Vânt 60º 3kt
Vizibilitate 6400m
Vremea -
Nori Scattered Clouds 900ft
Presiune
Change -
Raw K33V 140955Z AUTO 06003KT 4SM SCT009 BKN026 OVC030 M03/M04 A3000 RMK AO2 T10271045

MVFR

-3.2°C / -5°C

[Mai mult]
Vânt 90º 3kt
Vizibilitate 6400m
Vremea -
Nori Scattered Clouds 500ft
Presiune
Change -
Raw K33V 140935Z AUTO 09003KT 4SM SCT005 BKN013 OVC033 M03/M05 A3000 RMK AO2 T10321050

MVFR

-3.2°C / -5°C

[Mai mult]
Vânt 80º 6kt
Vizibilitate 8000m
Vremea -
Nori Scattered Clouds 500ft
Presiune
Change -
Raw K33V 140915Z AUTO 08006KT 5SM SCT005 BKN033 OVC045 M03/M05 A3000 RMK AO2 T10321050

IFR

-3.9°C / -5.5°C

[Mai mult]
Vânt 70º 8kt
Vizibilitate 2000m
Vremea -
Nori Overcast 500ft
Presiune
Change -
Raw K33V 140855Z AUTO 07008KT 1 1/4SM OVC005 M04/M05 A3000 RMK AO2 T10391055

LIFR

-3.5°C / -5.2°C

[Mai mult]
Vânt 70º 7kt
Vizibilitate 1600m
Vremea -
Nori Overcast 300ft
Presiune
Change -
Raw K33V 140835Z AUTO 07007KT 1SM OVC003 M03/M05 A3000 RMK AO2 T10351052

LIFR

-2.7°C / -4.3°C

[Mai mult]
Vânt 60º 5kt
Vizibilitate 1200m
Vremea -
Nori Overcast 300ft
Presiune
Change -
Raw K33V 140815Z AUTO 06005KT 3/4SM OVC003 M03/M04 A3001 RMK AO2 T10271043

LIFR

-2.7°C / -4.5°C

[Mai mult]
Vânt 70º 7kt
Vizibilitate 800m
Vremea -
Nori Overcast 300ft
Presiune
Change -
Raw K33V 140755Z AUTO 07007KT 1/2SM OVC003 M03/M04 A3000 RMK AO2 T10271045

IFR

-2.4°C / -4.4°C

[Mai mult]
Vânt 70º 9kt
Vizibilitate 2800m
Vremea -
Nori Broken Clouds 700ft
Presiune
Change -
Raw K33V 140735Z AUTO 07009KT 1 3/4SM BKN007 OVC012 M02/M04 A3000 RMK AO2 T10241044

IFR

-1.3°C / -3°C

[Mai mult]
Vânt 70º 7kt
Vizibilitate 3200m
Vremea -
Nori Broken Clouds 1000ft
Presiune
Change -
Raw K33V 140715Z AUTO 07007KT 2SM BKN010 OVC015 M01/M03 A3000 RMK AO2 T10131030

IFR

-1.3°C / -3.1°C

[Mai mult]
Vânt 70º 8kt
Vizibilitate 2800m
Vremea -
Nori Scattered Clouds 800ft
Presiune
Change -
Raw K33V 140655Z AUTO 07008KT 1 3/4SM SCT008 BKN014 OVC021 M01/M03 A3000 RMK AO2 T10131031

IFR

-1.3°C / -2.7°C

[Mai mult]
Vânt 70º 5kt
Vizibilitate 3200m
Vremea -
Nori Scattered Clouds 900ft
Presiune
Change -
Raw K33V 140635Z AUTO 07005KT 2SM SCT009 BKN014 OVC021 M01/M03 A3000 RMK AO2 T10131027

IFR

-1.3°C / -3°C

[Mai mult]
Vânt 290º 5kt
Vizibilitate 3200m
Vremea -
Nori Scattered Clouds 600ft
Presiune
Change -
Raw K33V 140615Z AUTO 29005KT 2SM SCT006 BKN010 OVC016 M01/M03 A3001 RMK AO2 T10131030

Current satellite images for Walden, Statele Unite

Markerul cu locaţia este poziţionat pe Walden. [Mai mult]

The real-time satellite image combines visible light during daytime with infrared radiation during nighttime. At night, the image is not dark as infrared radiation can detect temperature differences. Unfortunately, low clouds and fog are difficult to distinguish from ground temperatures and thus can be almost invisible during the night. Meteosat satellite images for Europe are updated in real-time every 5 minutes. GOES-16/GOES-17 (North & South America) and Himawari (Asia) images update every 10 minutes.

Radar și nowcast de precipitații pentru Walden

Markerul de locație este plasat în Walden. Această animație arată radarul de precipitații pentru ultima oră, precum și o 1h prognoză. Bruma și fulguiala pot fi invizibile pe radar. Intensitatea precipitațiilor este reprezentată prin culori, de la albastru deschis la violet închis.